createdAt,value
2023-01-22T00:01:50.037Z,4.43
2023-01-22T00:04:18.393Z,4.87
2023-01-22T00:06:46.870Z,5.13
2023-01-22T00:09:15.779Z,4.97
2023-01-22T00:11:44.301Z,5.13
2023-01-22T00:14:12.525Z,4.60
2023-01-22T00:16:42.333Z,4.90
2023-01-22T00:19:11.475Z,4.80
2023-01-22T00:21:39.979Z,5.03
2023-01-22T00:24:08.754Z,4.83
2023-01-22T00:26:38.464Z,4.43
2023-01-22T00:29:06.715Z,5.00
2023-01-22T00:31:35.379Z,4.27
2023-01-22T00:34:05.352Z,4.97
2023-01-22T00:36:34.061Z,4.53
2023-01-22T00:39:02.660Z,5.00
2023-01-22T00:41:31.042Z,5.43
2023-01-22T00:43:59.204Z,4.93
2023-01-22T00:46:27.573Z,4.90
2023-01-22T00:48:55.879Z,4.57
2023-01-22T00:51:25.790Z,5.00
2023-01-22T00:53:54.079Z,4.67
2023-01-22T00:56:22.412Z,4.83
2023-01-22T00:58:50.952Z,4.97
2023-01-22T01:01:20.392Z,5.00
2023-01-22T01:03:48.597Z,5.00
2023-01-22T01:06:19.774Z,4.63
2023-01-22T01:08:50.314Z,5.13
2023-01-22T01:11:22.145Z,4.63
2023-01-22T01:13:51.550Z,5.27
2023-01-22T01:16:22.143Z,5.30
2023-01-22T01:18:50.582Z,5.07
2023-01-22T01:21:19.949Z,5.33
2023-01-22T01:23:49.886Z,5.20
2023-01-22T01:26:18.421Z,5.43
2023-01-22T01:28:47.686Z,5.70
2023-01-22T01:31:17.652Z,5.37
2023-01-22T01:33:46.942Z,5.57
2023-01-22T01:36:21.265Z,5.57
2023-01-22T01:38:57.847Z,5.80
2023-01-22T01:41:28.234Z,6.10
2023-01-22T01:44:11.349Z,5.70
2023-01-22T01:46:44.018Z,6.27
2023-01-22T01:49:27.118Z,5.90
2023-01-22T01:51:58.898Z,5.90
2023-01-22T01:54:30.456Z,6.50
2023-01-22T01:57:03.169Z,5.80
2023-01-22T01:59:33.554Z,7.30
2023-01-22T02:02:03.439Z,6.20
2023-01-22T02:04:31.828Z,6.47
2023-01-22T02:07:01.651Z,6.03
2023-01-22T02:09:31.247Z,6.57
2023-01-22T02:11:59.820Z,6.50
2023-01-22T02:14:31.940Z,6.50
2023-01-22T02:17:06.787Z,6.30
2023-01-22T02:19:35.298Z,6.53
2023-01-22T02:22:12.218Z,5.87
2023-01-22T02:24:40.760Z,5.73
2023-01-22T02:27:09.272Z,6.00
2023-01-22T02:29:37.895Z,5.60
2023-01-22T02:32:06.351Z,6.50
2023-01-22T02:34:34.723Z,5.10
2023-01-22T02:37:04.814Z,5.70
2023-01-22T02:39:33.100Z,8.13
2023-01-22T02:42:02.283Z,5.80
2023-01-22T02:44:30.641Z,7.03
2023-01-22T02:46:58.978Z,5.30
2023-01-22T02:49:27.320Z,6.37
2023-01-22T02:51:55.664Z,5.10
2023-01-22T02:54:25.589Z,5.17
2023-01-22T02:56:53.974Z,4.77
2023-01-22T02:59:22.353Z,4.90
2023-01-22T03:01:51.767Z,5.03
2023-01-22T03:04:20.721Z,4.70
2023-01-22T03:06:48.984Z,4.33
2023-01-22T03:09:18.619Z,4.77
2023-01-22T03:11:49.143Z,4.93
2023-01-22T03:14:35.275Z,4.97
2023-01-22T03:17:21.355Z,4.97
2023-01-22T03:20:07.764Z,5.47
2023-01-22T03:22:35.861Z,4.93
2023-01-22T03:25:04.332Z,4.63
2023-01-22T03:27:33.925Z,5.63
2023-01-22T03:30:02.754Z,4.87
2023-01-22T03:32:31.791Z,5.00
2023-01-22T03:35:00.050Z,4.70
2023-01-22T03:37:28.487Z,5.00
2023-01-22T03:39:58.090Z,4.70
2023-01-22T03:42:26.714Z,4.87
2023-01-22T03:44:56.259Z,5.07
2023-01-22T03:47:24.427Z,5.53
2023-01-22T03:49:53.525Z,5.20
2023-01-22T03:52:21.898Z,5.33
2023-01-22T03:54:50.525Z,6.70
2023-01-22T03:57:18.678Z,5.90
2023-01-22T03:59:47.069Z,6.30
2023-01-22T04:02:16.726Z,5.63
2023-01-22T04:04:44.949Z,5.87
2023-01-22T04:07:13.301Z,6.70
2023-01-22T04:09:41.479Z,6.10
2023-01-22T04:12:09.794Z,5.93
2023-01-22T04:14:38.233Z,5.33
2023-01-22T04:17:06.729Z,5.03
2023-01-22T04:19:36.711Z,4.87
2023-01-22T04:22:05.028Z,5.37
2023-01-22T04:24:33.173Z,4.60
2023-01-22T04:27:01.392Z,4.90
2023-01-22T04:29:29.534Z,5.00
2023-01-22T04:31:57.886Z,5.60
2023-01-22T04:34:26.446Z,5.30
2023-01-22T04:36:56.227Z,4.77
2023-01-22T04:39:24.385Z,5.03
2023-01-22T04:41:52.609Z,4.77
2023-01-22T04:44:20.830Z,4.47
2023-01-22T04:46:49.135Z,4.37
2023-01-22T04:49:17.319Z,4.60
2023-01-22T04:51:45.706Z,4.83
2023-01-22T04:54:15.312Z,4.93
2023-01-22T04:56:43.768Z,4.37
2023-01-22T04:59:12.125Z,4.40
2023-01-22T05:01:40.627Z,4.30
2023-01-22T05:04:08.993Z,4.50
2023-01-22T05:06:37.419Z,4.43
2023-01-22T05:09:05.643Z,4.30
2023-01-22T05:11:35.499Z,4.40
2023-01-22T05:14:03.775Z,4.80
2023-01-22T05:16:32.237Z,4.40
2023-01-22T05:19:01.158Z,4.60
2023-01-22T05:21:29.807Z,4.20
2023-01-22T05:23:58.042Z,4.07
2023-01-22T05:26:27.124Z,4.07
2023-01-22T05:28:56.636Z,4.20
2023-01-22T05:31:24.994Z,6.07
2023-01-22T05:33:53.364Z,4.27
2023-01-22T05:36:22.109Z,4.50
2023-01-22T05:38:50.537Z,4.37
2023-01-22T05:41:18.744Z,4.33
2023-01-22T05:43:46.991Z,4.93
2023-01-22T05:46:16.816Z,4.80
2023-01-22T05:48:45.339Z,4.70
2023-01-22T05:51:13.711Z,4.37
2023-01-22T05:53:42.057Z,5.10
2023-01-22T05:56:11.302Z,5.20
2023-01-22T05:58:40.362Z,4.60
2023-01-22T06:01:08.706Z,4.73
2023-01-22T06:03:38.579Z,5.27
2023-01-22T06:06:08.919Z,4.63
2023-01-22T06:08:37.248Z,4.07
2023-01-22T06:11:07.145Z,4.57
2023-01-22T06:13:35.923Z,4.50
2023-01-22T06:16:04.640Z,4.50
2023-01-22T06:18:33.320Z,4.53
2023-01-22T06:21:04.330Z,5.47
2023-01-22T06:23:40.678Z,4.67
2023-01-22T06:26:08.889Z,5.60
2023-01-22T06:28:37.305Z,5.37
2023-01-22T06:31:07.712Z,5.00
2023-01-22T06:33:37.135Z,5.07
2023-01-22T06:36:07.669Z,4.57
2023-01-22T06:38:37.255Z,5.50
2023-01-22T06:41:05.734Z,6.87
2023-01-22T06:43:34.034Z,6.17
2023-01-22T06:46:04.993Z,5.30
2023-01-22T06:48:33.928Z,5.33
2023-01-22T06:51:02.208Z,5.63
2023-01-22T06:53:31.964Z,5.60
2023-01-22T06:56:01.003Z,5.63
2023-01-22T06:58:29.705Z,5.60
2023-01-22T07:01:01.471Z,5.80
2023-01-22T07:03:29.886Z,5.57
2023-01-22T07:05:59.026Z,5.33
2023-01-22T07:08:28.574Z,6.60
2023-01-22T07:10:58.187Z,5.27
2023-01-22T07:13:26.819Z,6.13
2023-01-22T07:15:55.562Z,5.87
2023-01-22T07:18:24.487Z,5.30
2023-01-22T07:20:52.813Z,6.13
2023-01-22T07:23:21.282Z,5.90
2023-01-22T07:25:49.647Z,5.83
2023-01-22T07:28:19.310Z,5.50
2023-01-22T07:30:47.597Z,5.40
2023-01-22T07:33:16.746Z,6.23
2023-01-22T07:35:45.315Z,6.63
2023-01-22T07:38:13.576Z,12.57
2023-01-22T07:40:42.097Z,8.87
2023-01-22T07:43:10.576Z,9.40
2023-01-22T07:45:40.144Z,6.53
2023-01-22T07:48:10.783Z,5.70
2023-01-22T07:50:40.257Z,7.10
2023-01-22T07:53:08.732Z,7.43
2023-01-22T07:55:37.109Z,7.20
2023-01-22T07:58:07.529Z,7.43
2023-01-22T08:00:36.678Z,7.40
2023-01-22T08:03:07.065Z,7.60
2023-01-22T08:05:35.598Z,7.97
2023-01-22T08:08:04.105Z,9.80
2023-01-22T08:10:32.768Z,10.07
2023-01-22T08:13:00.984Z,9.27
2023-01-22T08:15:29.346Z,10.33
2023-01-22T08:17:57.565Z,10.87
2023-01-22T08:20:27.637Z,9.87
2023-01-22T08:22:58.271Z,8.57
2023-01-22T08:25:27.555Z,10.27
2023-01-22T08:27:56.327Z,8.70
2023-01-22T08:30:25.074Z,7.27
2023-01-22T08:32:53.556Z,8.73
2023-01-22T08:35:24.475Z,8.70
2023-01-22T08:37:54.485Z,7.50
2023-01-22T08:40:22.815Z,9.23
2023-01-22T08:42:54.480Z,10.67
2023-01-22T08:45:23.819Z,10.63
2023-01-22T08:47:56.429Z,12.13
2023-01-22T08:50:25.043Z,11.13
2023-01-22T08:52:57.655Z,11.93
2023-01-22T08:55:27.621Z,17.33
2023-01-22T08:57:56.147Z,13.07
2023-01-22T09:00:25.717Z,14.93
2023-01-22T09:02:58.177Z,15.70
2023-01-22T09:05:26.980Z,15.60
2023-01-22T09:07:56.627Z,11.70
2023-01-22T09:10:25.291Z,11.27
2023-01-22T09:12:53.599Z,9.03
2023-01-22T09:15:23.127Z,10.30
2023-01-22T09:17:51.859Z,8.83
2023-01-22T09:20:21.215Z,11.43
2023-01-22T09:22:50.235Z,8.90
2023-01-22T09:25:20.436Z,12.93
2023-01-22T09:27:48.678Z,11.17
2023-01-22T09:30:19.286Z,12.40
2023-01-22T09:32:48.274Z,8.93
2023-01-22T09:35:16.805Z,10.67
2023-01-22T09:37:45.022Z,8.73
2023-01-22T09:40:25.906Z,9.70
2023-01-22T09:42:59.117Z,11.93
2023-01-22T09:45:28.839Z,10.57
2023-01-22T09:48:00.329Z,23.67
2023-01-22T09:50:31.482Z,12.63
2023-01-22T09:53:03.801Z,9.83
2023-01-22T09:55:39.949Z,10.33
2023-01-22T09:58:14.880Z,11.13
2023-01-22T10:00:47.696Z,11.53
2023-01-22T10:03:24.156Z,10.87
2023-01-22T10:05:56.253Z,13.00
2023-01-22T10:08:27.257Z,11.47
2023-01-22T10:10:57.419Z,10.60
2023-01-22T10:13:29.268Z,12.93
2023-01-22T10:15:58.172Z,14.10
2023-01-22T10:18:36.004Z,12.90
2023-01-22T10:21:07.721Z,14.37
2023-01-22T10:23:35.992Z,14.63
2023-01-22T10:26:16.279Z,15.00
2023-01-22T10:28:46.371Z,28.23
2023-01-22T10:31:26.435Z,17.67
2023-01-22T10:33:59.889Z,13.23
2023-01-22T10:36:30.053Z,11.57
2023-01-22T10:39:07.494Z,12.30
2023-01-22T10:41:37.665Z,14.93
2023-01-22T10:44:19.184Z,73.43
2023-01-22T10:46:49.720Z,20.97
2023-01-22T10:49:20.620Z,23.27
2023-01-22T10:51:56.506Z,13.50
2023-01-22T10:54:31.563Z,13.73
2023-01-22T10:57:19.509Z,15.17
2023-01-22T10:59:52.236Z,12.30
2023-01-22T11:02:25.462Z,12.10
2023-01-22T11:04:54.281Z,15.67
2023-01-22T11:07:25.463Z,16.67
2023-01-22T11:10:03.892Z,13.50
2023-01-22T11:12:37.661Z,13.87
2023-01-22T11:15:18.663Z,17.00
2023-01-22T11:17:51.850Z,15.27
2023-01-22T11:20:25.860Z,11.63
2023-01-22T11:23:04.491Z,14.07
2023-01-22T11:25:39.791Z,14.17
2023-01-22T11:28:21.972Z,14.23
2023-01-22T11:31:08.291Z,13.17
2023-01-22T11:33:50.529Z,13.70
2023-01-22T11:36:27.062Z,17.30
2023-01-22T11:39:00.606Z,12.70
2023-01-22T11:41:40.047Z,14.33
2023-01-22T11:44:49.244Z,15.53
2023-01-22T11:47:37.246Z,15.03
2023-01-22T11:50:18.579Z,18.97
2023-01-22T11:52:52.127Z,21.70
2023-01-22T11:55:44.743Z,15.47
2023-01-22T11:58:20.507Z,16.73
2023-01-22T12:00:59.716Z,19.13
2023-01-22T12:04:01.127Z,29.60
2023-01-22T12:06:41.673Z,21.97
2023-01-22T12:09:19.940Z,17.43
2023-01-22T12:12:09.059Z,26.40
2023-01-22T12:14:50.863Z,19.97
2023-01-22T12:17:31.725Z,24.13
2023-01-22T12:20:20.475Z,16.40
2023-01-22T12:22:53.349Z,94.27
2023-01-22T12:25:28.422Z,19.20
2023-01-22T12:28:03.507Z,17.47
2023-01-22T12:30:48.652Z,50.97
2023-01-22T12:33:23.481Z,28.50
2023-01-22T12:35:54.035Z,18.43
2023-01-22T12:38:33.236Z,29.77
2023-01-22T12:41:13.119Z,20.63
2023-01-22T12:43:47.811Z,23.53
2023-01-22T12:46:25.461Z,15.40
2023-01-22T12:49:04.807Z,25.70
2023-01-22T12:51:39.838Z,20.70
2023-01-22T12:54:22.874Z,21.53
2023-01-22T12:56:56.457Z,22.63
2023-01-22T12:59:42.010Z,27.07
2023-01-22T13:02:35.836Z,24.90
2023-01-22T13:05:18.865Z,21.80
2023-01-22T13:07:47.993Z,21.47
2023-01-22T13:10:29.493Z,18.60
2023-01-22T13:13:00.943Z,24.17
2023-01-22T13:15:31.811Z,38.80
2023-01-22T13:18:08.067Z,20.67
2023-01-22T13:20:49.256Z,18.63
2023-01-22T13:23:21.466Z,18.93
2023-01-22T13:25:55.248Z,21.20
2023-01-22T13:28:25.381Z,36.43
2023-01-22T13:30:59.049Z,17.97
2023-01-22T13:33:28.169Z,20.03
2023-01-22T13:35:59.058Z,34.67
2023-01-22T13:38:29.408Z,21.10
2023-01-22T13:41:00.178Z,22.83
2023-01-22T13:43:29.040Z,23.37
2023-01-22T13:45:58.460Z,23.23
2023-01-22T13:48:27.522Z,26.73
2023-01-22T13:51:02.046Z,25.80
2023-01-22T13:53:33.603Z,42.97
2023-01-22T13:56:02.319Z,21.57
2023-01-22T13:58:47.852Z,41.10
2023-01-22T14:01:29.210Z,23.17
2023-01-22T14:04:02.780Z,24.03
2023-01-22T14:06:44.156Z,38.53
2023-01-22T14:09:12.773Z,21.87
2023-01-22T14:11:41.799Z,35.03
2023-01-22T14:14:17.680Z,42.33
2023-01-22T14:16:46.732Z,85.07
2023-01-22T14:19:16.020Z,33.13
2023-01-22T14:21:45.852Z,31.60
2023-01-22T14:24:14.212Z,32.37
2023-01-22T14:26:42.599Z,29.83
2023-01-22T14:29:10.756Z,25.63
2023-01-22T14:31:39.379Z,35.37
2023-01-22T14:34:07.966Z,26.93
2023-01-22T14:36:36.725Z,27.00
2023-01-22T14:39:07.101Z,27.60
2023-01-22T14:41:35.436Z,31.77
2023-01-22T14:44:04.543Z,29.60
2023-01-22T14:46:32.897Z,27.37
2023-01-22T14:49:01.895Z,21.80
2023-01-22T14:51:30.188Z,26.90
2023-01-22T14:53:59.434Z,21.33
2023-01-22T14:56:29.048Z,24.60
2023-01-22T14:58:57.281Z,24.43
2023-01-22T15:01:25.608Z,25.03
2023-01-22T15:03:55.063Z,23.60
2023-01-22T15:06:24.714Z,24.17
2023-01-22T15:08:52.921Z,26.93
2023-01-22T15:11:21.295Z,23.17
2023-01-22T15:13:52.899Z,33.67
2023-01-22T15:16:21.279Z,35.57
2023-01-22T15:18:49.908Z,47.73
2023-01-22T15:21:18.099Z,117.37
2023-01-22T15:23:46.687Z,50.27
2023-01-22T15:26:25.280Z,60.23
2023-01-22T15:28:56.223Z,39.97
2023-01-22T15:31:24.750Z,34.23
2023-01-22T15:33:53.203Z,29.73
2023-01-22T15:36:21.467Z,34.77
2023-01-22T15:38:50.495Z,29.60
2023-01-22T15:41:21.063Z,47.30
2023-01-22T15:43:50.912Z,30.53
2023-01-22T15:46:21.649Z,36.20
2023-01-22T15:48:50.499Z,22.27
2023-01-22T15:51:19.729Z,22.80
2023-01-22T15:53:50.129Z,20.93
2023-01-22T15:56:18.943Z,24.17
2023-01-22T15:58:48.867Z,19.27
2023-01-22T16:01:17.861Z,22.17
2023-01-22T16:03:47.810Z,22.17
2023-01-22T16:06:18.262Z,23.70
2023-01-22T16:08:47.638Z,26.60
2023-01-22T16:11:17.037Z,21.63
2023-01-22T16:13:45.945Z,22.30
2023-01-22T16:16:17.136Z,20.10
2023-01-22T16:18:48.077Z,25.07
2023-01-22T16:21:17.453Z,24.40
2023-01-22T16:23:47.983Z,22.53
2023-01-22T16:26:18.530Z,27.00
2023-01-22T16:28:50.556Z,24.90
2023-01-22T16:31:23.155Z,25.20
2023-01-22T16:33:55.090Z,26.00
2023-01-22T16:36:24.877Z,28.83
2023-01-22T16:38:53.464Z,28.67
2023-01-22T16:41:25.993Z,24.67
2023-01-22T16:43:56.272Z,27.67
2023-01-22T16:46:28.854Z,28.30
2023-01-22T16:49:00.558Z,31.27
2023-01-22T16:51:33.664Z,29.73
2023-01-22T16:54:02.493Z,31.90
2023-01-22T16:56:50.076Z,32.80
2023-01-22T16:59:25.436Z,32.33
2023-01-22T17:01:55.997Z,32.57
2023-01-22T17:04:38.196Z,29.70
2023-01-22T17:07:07.606Z,24.77
2023-01-22T17:09:37.488Z,30.80
2023-01-22T17:12:16.756Z,32.93
2023-01-22T17:14:48.427Z,30.13
2023-01-22T17:17:19.990Z,32.17
2023-01-22T17:19:49.877Z,24.27
2023-01-22T17:22:18.798Z,25.13
2023-01-22T17:24:47.732Z,25.97
2023-01-22T17:27:18.724Z,27.70
2023-01-22T17:29:47.761Z,21.70
2023-01-22T17:32:16.084Z,23.13
2023-01-22T17:34:44.508Z,23.47
2023-01-22T17:37:14.573Z,23.00
2023-01-22T17:39:46.014Z,24.13
2023-01-22T17:42:14.411Z,24.07
2023-01-22T17:44:42.812Z,22.53
2023-01-22T17:47:14.581Z,23.33
2023-01-22T17:49:43.092Z,22.30
2023-01-22T17:52:11.535Z,20.97
2023-01-22T17:54:41.966Z,22.50
2023-01-22T17:57:10.780Z,19.93
2023-01-22T17:59:39.334Z,20.67
2023-01-22T18:02:07.797Z,20.33
2023-01-22T18:04:37.216Z,20.37
2023-01-22T18:07:06.003Z,19.77
2023-01-22T18:09:34.550Z,17.60
2023-01-22T18:12:04.586Z,21.83
2023-01-22T18:14:34.331Z,17.07
2023-01-22T18:17:02.765Z,17.07
2023-01-22T18:19:30.946Z,16.03
2023-01-22T18:21:59.910Z,14.63
2023-01-22T18:24:31.139Z,13.60
2023-01-22T18:27:00.147Z,17.60
2023-01-22T18:29:30.299Z,14.47
2023-01-22T18:31:59.317Z,15.33
2023-01-22T18:34:27.747Z,14.10
2023-01-22T18:36:56.013Z,12.83
2023-01-22T18:39:25.785Z,11.83
2023-01-22T18:41:54.282Z,14.70
2023-01-22T18:44:27.645Z,12.30
2023-01-22T18:46:59.385Z,13.33
2023-01-22T18:49:29.017Z,12.60
2023-01-22T18:52:01.062Z,11.53
2023-01-22T18:54:32.736Z,10.80
2023-01-22T18:57:01.386Z,11.03
2023-01-22T18:59:30.127Z,11.40
2023-01-22T19:02:00.692Z,11.60
2023-01-22T19:04:30.269Z,11.63
2023-01-22T19:07:00.580Z,10.73
2023-01-22T19:09:29.183Z,11.67
2023-01-22T19:11:58.533Z,13.17
2023-01-22T19:14:27.076Z,11.80
2023-01-22T19:16:55.518Z,10.97
2023-01-22T19:19:25.335Z,14.60
2023-01-22T19:21:55.840Z,12.37
2023-01-22T19:24:26.845Z,9.57
2023-01-22T19:26:55.471Z,11.20
2023-01-22T19:29:25.340Z,10.00
2023-01-22T19:31:56.464Z,11.77
2023-01-22T19:34:30.330Z,10.83
2023-01-22T19:37:02.606Z,10.33
2023-01-22T19:39:31.660Z,9.90
2023-01-22T19:42:02.329Z,10.17
2023-01-22T19:44:30.730Z,10.40
2023-01-22T19:46:59.254Z,11.80
2023-01-22T19:49:28.945Z,10.03
2023-01-22T19:51:57.328Z,8.13
2023-01-22T19:54:25.863Z,8.80
2023-01-22T19:56:54.422Z,9.97
2023-01-22T19:59:24.318Z,9.27
2023-01-22T20:01:53.149Z,10.67
2023-01-22T20:04:24.075Z,8.93
2023-01-22T20:06:57.028Z,8.57
2023-01-22T20:09:25.458Z,12.63
2023-01-22T20:11:55.780Z,9.43
2023-01-22T20:14:25.928Z,10.03
2023-01-22T20:16:54.334Z,9.60
2023-01-22T20:19:22.575Z,8.97
2023-01-22T20:21:50.892Z,8.00
2023-01-22T20:24:20.926Z,8.73
2023-01-22T20:26:49.134Z,8.83
2023-01-22T20:29:17.833Z,8.60
2023-01-22T20:31:46.164Z,8.93
2023-01-22T20:34:14.599Z,8.90
2023-01-22T20:36:42.826Z,9.60
2023-01-22T20:39:11.477Z,8.67
2023-01-22T20:41:41.896Z,8.10
2023-01-22T20:44:12.207Z,8.50
2023-01-22T20:46:43.758Z,9.80
2023-01-22T20:49:12.970Z,9.57
2023-01-22T20:51:42.235Z,8.43
2023-01-22T20:54:10.671Z,15.37
2023-01-22T20:56:39.409Z,11.33
2023-01-22T20:59:11.473Z,10.33
2023-01-22T21:01:40.552Z,9.50
2023-01-22T21:04:09.556Z,10.43
2023-01-22T21:06:39.306Z,13.07
2023-01-22T21:09:08.582Z,10.27
2023-01-22T21:11:38.700Z,9.93
2023-01-22T21:14:09.624Z,11.17
2023-01-22T21:16:44.715Z,10.50
2023-01-22T21:19:21.057Z,10.90
2023-01-22T21:21:49.673Z,11.27
2023-01-22T21:24:18.748Z,9.97
2023-01-22T21:26:47.421Z,10.07
2023-01-22T21:29:22.596Z,8.87
2023-01-22T21:31:54.006Z,8.47
2023-01-22T21:34:27.049Z,10.87
2023-01-22T21:37:01.092Z,9.20
2023-01-22T21:39:37.009Z,10.03
2023-01-22T21:42:22.808Z,9.27
2023-01-22T21:45:13.697Z,10.40
2023-01-22T21:47:42.288Z,11.37
2023-01-22T21:50:11.700Z,9.83
2023-01-22T21:52:42.440Z,9.37
2023-01-22T21:55:12.065Z,10.83
2023-01-22T21:57:40.645Z,8.53
2023-01-22T22:00:14.357Z,9.10
2023-01-22T22:02:42.693Z,10.57
2023-01-22T22:05:11.731Z,9.77
2023-01-22T22:07:39.972Z,9.77
2023-01-22T22:10:12.646Z,8.10
2023-01-22T22:12:41.109Z,10.63
2023-01-22T22:15:12.153Z,10.57
2023-01-22T22:17:44.841Z,8.57
2023-01-22T22:20:13.912Z,9.53
2023-01-22T22:22:42.205Z,10.07
2023-01-22T22:25:11.130Z,9.40
2023-01-22T22:27:42.175Z,8.70
2023-01-22T22:30:15.737Z,8.87
2023-01-22T22:32:44.085Z,10.00
2023-01-22T22:35:12.730Z,9.60
2023-01-22T22:37:44.010Z,10.13
2023-01-22T22:40:15.855Z,8.97
2023-01-22T22:42:44.417Z,10.10
2023-01-22T22:45:17.345Z,10.37
2023-01-22T22:47:46.870Z,9.87
2023-01-22T22:50:15.730Z,10.07
2023-01-22T22:52:44.142Z,9.80
2023-01-22T22:55:12.875Z,10.70
2023-01-22T22:57:41.512Z,10.87
2023-01-22T23:00:13.303Z,11.93
2023-01-22T23:02:47.089Z,10.90
2023-01-22T23:05:15.597Z,11.13
2023-01-22T23:07:43.927Z,12.30
2023-01-22T23:10:29.055Z,11.07
2023-01-22T23:12:59.619Z,10.83
2023-01-22T23:15:30.462Z,11.90
2023-01-22T23:18:01.028Z,10.00
2023-01-22T23:20:30.089Z,11.17
2023-01-22T23:23:00.038Z,11.77
2023-01-22T23:25:28.771Z,10.70
2023-01-22T23:27:57.744Z,11.23
2023-01-22T23:30:27.144Z,11.43
2023-01-22T23:32:55.533Z,13.70
2023-01-22T23:35:25.441Z,12.50
2023-01-22T23:41:56.952Z,13.27
2023-01-22T23:44:25.330Z,11.90
2023-01-22T23:46:57.124Z,13.53
2023-01-22T23:49:26.120Z,12.60
2023-01-22T23:51:59.036Z,11.93
2023-01-22T23:54:27.973Z,15.50
2023-01-22T23:56:56.841Z,13.87
2023-01-22T23:59:28.413Z,15.37
